Aviation Digital Data Service (ADDS)

Output produced by METARs form (1255 UTC 21 February 2018)
found at http://www.aviationweather.gov/adds/metars/
 
KUTS 211255Z 2113/2212 31009KT 5SM RA BR BKN005 OVC011 
     FM211500 34008KT P6SM -SHRA OVC007 
     FM211800 33009KT 3SM -RA BR OVC007 
     FM220300 33006KT 4SM -RA BR OVC004 
     FM220900 36003KT 2SM BR OVC003